createdAt,value
2019-02-25T00:00:50.264Z,159.50
2019-02-25T00:02:00.299Z,168.93
2019-02-25T00:03:08.639Z,174.73
2019-02-25T00:04:17.009Z,180.47
2019-02-25T00:05:25.893Z,163.70
2019-02-25T00:06:34.184Z,167.37
2019-02-25T00:07:42.532Z,164.37
2019-02-25T00:08:51.169Z,166.83
2019-02-25T00:09:59.476Z,170.17
2019-02-25T00:11:07.662Z,178.10
2019-02-25T00:12:16.878Z,183.97
2019-02-25T00:13:25.599Z,169.93
2019-02-25T00:14:34.002Z,161.30
2019-02-25T00:15:42.816Z,165.13
2019-02-25T00:16:51.218Z,164.07
2019-02-25T00:18:00.405Z,163.87
2019-02-25T00:19:08.672Z,175.63
2019-02-25T00:20:17.001Z,185.57
2019-02-25T00:21:25.627Z,171.13
2019-02-25T00:22:33.894Z,166.73
2019-02-25T00:23:42.087Z,164.50
2019-02-25T00:24:50.374Z,166.83
2019-02-25T00:25:58.998Z,167.50
2019-02-25T00:27:07.282Z,173.60
2019-02-25T00:28:16.111Z,181.53
2019-02-25T00:29:24.488Z,175.67
2019-02-25T00:30:33.066Z,172.47
2019-02-25T00:31:41.848Z,169.20
2019-02-25T00:32:50.263Z,163.83
2019-02-25T00:33:58.875Z,166.70
2019-02-25T00:35:07.835Z,169.70
2019-02-25T00:36:16.105Z,185.70
2019-02-25T00:37:24.931Z,179.07
2019-02-25T00:38:33.394Z,163.13
2019-02-25T00:39:42.088Z,126.20
2019-02-25T00:40:50.585Z,132.60
2019-02-25T00:41:59.392Z,152.07
2019-02-25T00:43:07.652Z,151.97
2019-02-25T00:44:16.407Z,170.70
2019-02-25T00:45:24.741Z,163.47
2019-02-25T00:46:33.190Z,149.40
2019-02-25T00:47:41.932Z,142.47
2019-02-25T00:48:50.606Z,166.97
2019-02-25T00:50:00.024Z,168.57
2019-02-25T00:51:08.448Z,171.33
2019-02-25T00:52:17.495Z,184.13
2019-02-25T00:53:27.056Z,168.50
2019-02-25T00:54:35.530Z,165.30
2019-02-25T00:55:43.923Z,166.90
2019-02-25T00:56:52.055Z,169.40
2019-02-25T00:58:01.531Z,164.00
2019-02-25T00:59:09.961Z,169.30
2019-02-25T01:00:23.113Z,184.20
2019-02-25T01:01:31.456Z,161.93
2019-02-25T01:02:39.876Z,164.07
2019-02-25T01:03:48.520Z,163.10
2019-02-25T01:04:57.902Z,165.53
2019-02-25T01:06:06.665Z,160.83
2019-02-25T01:07:15.675Z,180.20
2019-02-25T01:08:24.010Z,182.90
2019-02-25T01:09:32.663Z,165.63
2019-02-25T01:10:41.371Z,167.93
2019-02-25T01:11:49.687Z,165.40
2019-02-25T01:12:58.458Z,165.70
2019-02-25T01:14:07.227Z,167.13
2019-02-25T01:15:17.158Z,183.40
2019-02-25T01:16:25.752Z,186.53
2019-02-25T01:17:34.095Z,165.80
2019-02-25T01:18:42.576Z,168.03
2019-02-25T01:19:51.674Z,165.97
2019-02-25T01:21:00.050Z,162.47
2019-02-25T01:22:08.690Z,161.63
2019-02-25T01:23:17.238Z,178.77
2019-02-25T01:24:26.949Z,175.93
2019-02-25T01:25:35.676Z,159.87
2019-02-25T01:26:44.075Z,164.87
2019-02-25T01:27:52.555Z,162.80
2019-02-25T01:29:01.266Z,164.03
2019-02-25T01:30:19.378Z,163.33
2019-02-25T01:31:27.813Z,172.47
2019-02-25T01:32:36.006Z,160.80
2019-02-25T01:33:44.202Z,158.30
2019-02-25T01:34:52.580Z,158.67
2019-02-25T01:36:01.076Z,156.73
2019-02-25T01:37:10.031Z,156.13
2019-02-25T01:38:18.515Z,179.87
2019-02-25T01:39:26.834Z,176.63
2019-02-25T01:40:35.549Z,156.87
2019-02-25T01:41:43.823Z,155.37
2019-02-25T01:42:51.875Z,163.93
2019-02-25T01:44:01.233Z,24.03
2019-02-25T01:45:20.916Z,15.23
2019-02-25T01:46:29.825Z,35.13
2019-02-25T01:47:38.157Z,41.83
2019-02-25T01:48:46.675Z,92.60
2019-02-25T01:49:55.166Z,108.33
2019-02-25T01:51:03.687Z,102.37
2019-02-25T01:52:12.110Z,94.40
2019-02-25T01:53:20.664Z,164.43
2019-02-25T01:54:29.922Z,176.97
2019-02-25T01:55:38.425Z,159.07
2019-02-25T01:56:47.005Z,167.80
2019-02-25T01:57:55.488Z,163.43
2019-02-25T01:59:03.669Z,162.17
2019-02-25T02:00:21.388Z,162.73
2019-02-25T02:01:30.457Z,183.90
2019-02-25T02:02:39.199Z,159.13
2019-02-25T02:03:47.789Z,158.60
2019-02-25T02:04:56.843Z,167.80
2019-02-25T02:06:05.047Z,157.37
2019-02-25T02:07:13.922Z,159.00
2019-02-25T02:08:22.533Z,172.17
2019-02-25T02:09:30.973Z,174.40
2019-02-25T02:10:39.781Z,155.77
2019-02-25T02:11:47.982Z,157.83
2019-02-25T02:12:56.434Z,161.53
2019-02-25T02:14:07.971Z,157.43
2019-02-25T02:15:21.494Z,159.50
2019-02-25T02:16:29.909Z,170.97
2019-02-25T02:17:38.459Z,154.37
2019-02-25T02:18:47.063Z,153.27
2019-02-25T02:19:55.287Z,154.60
2019-02-25T02:21:04.021Z,157.83
2019-02-25T02:22:12.538Z,161.97
2019-02-25T02:23:20.993Z,171.90
2019-02-25T02:24:29.693Z,177.30
2019-02-25T02:25:38.314Z,158.50
2019-02-25T02:26:46.803Z,165.03
2019-02-25T02:27:55.834Z,157.57
2019-02-25T02:29:04.253Z,161.93
2019-02-25T02:30:22.660Z,163.17
2019-02-25T02:31:31.493Z,177.80
2019-02-25T02:32:39.733Z,161.23
2019-02-25T02:33:48.038Z,161.20
2019-02-25T02:34:56.286Z,163.17
2019-02-25T02:36:04.734Z,164.87
2019-02-25T02:37:13.097Z,160.67
2019-02-25T02:38:21.762Z,172.67
2019-02-25T02:39:30.367Z,177.23
2019-02-25T02:40:38.969Z,160.77
2019-02-25T02:42:13.852Z,160.63
2019-02-25T02:43:22.305Z,177.07
2019-02-25T02:44:30.696Z,177.53
2019-02-25T02:45:52.785Z,162.67
2019-02-25T02:47:20.643Z,161.00
2019-02-25T02:48:42.807Z,178.37
2019-02-25T02:49:51.118Z,159.70
2019-02-25T02:50:59.669Z,160.90
2019-02-25T02:52:08.368Z,162.87
2019-02-25T02:53:17.410Z,164.90
2019-02-25T02:54:26.162Z,177.87
2019-02-25T02:55:34.850Z,179.20
2019-02-25T02:56:43.208Z,163.37
2019-02-25T02:57:51.778Z,158.40
2019-02-25T02:59:00.350Z,161.90
2019-02-25T03:00:18.431Z,158.23
2019-02-25T03:01:26.708Z,182.23
2019-02-25T03:02:35.432Z,174.37
2019-02-25T03:03:43.826Z,164.67
2019-02-25T03:04:52.411Z,163.23
2019-02-25T03:06:01.060Z,167.27
2019-02-25T03:07:09.722Z,163.73
2019-02-25T03:08:18.059Z,160.93
2019-02-25T03:09:26.433Z,178.87
2019-02-25T03:10:34.991Z,179.43
2019-02-25T03:11:43.246Z,163.00
2019-02-25T03:12:51.872Z,159.93
2019-02-25T03:14:00.431Z,165.37
2019-02-25T03:15:13.346Z,163.57
2019-02-25T03:16:21.732Z,169.83
2019-02-25T03:17:30.125Z,182.77
2019-02-25T03:18:39.046Z,169.17
2019-02-25T03:19:47.084Z,158.77
2019-02-25T03:20:55.626Z,163.73
2019-02-25T03:22:04.028Z,158.83
2019-02-25T03:23:14.250Z,159.40
2019-02-25T03:24:22.595Z,168.90
2019-02-25T03:25:31.165Z,180.03
2019-02-25T03:26:39.596Z,170.63
2019-02-25T03:27:48.116Z,159.73
2019-02-25T03:28:56.814Z,160.80
2019-02-25T03:30:12.468Z,163.57
2019-02-25T03:31:21.013Z,165.50
2019-02-25T03:32:29.816Z,178.67
2019-02-25T03:33:38.234Z,175.47
2019-02-25T03:34:47.957Z,165.40
2019-02-25T03:35:56.423Z,167.13
2019-02-25T03:37:04.869Z,161.80
2019-02-25T03:38:13.596Z,160.77
2019-02-25T03:39:21.783Z,164.53
2019-02-25T03:40:30.473Z,177.20
2019-02-25T03:41:39.089Z,176.07
2019-02-25T03:42:47.591Z,166.87
2019-02-25T03:43:56.305Z,161.80
2019-02-25T03:45:06.559Z,160.63
2019-02-25T03:46:14.668Z,161.53
2019-02-25T03:47:22.950Z,164.40
2019-02-25T03:48:31.467Z,178.57
2019-02-25T03:49:40.440Z,173.97
2019-02-25T03:50:48.742Z,161.53
2019-02-25T03:51:57.250Z,156.97
2019-02-25T03:53:05.639Z,160.40
2019-02-25T03:54:14.214Z,158.67
2019-02-25T03:55:24.043Z,162.03
2019-02-25T03:56:32.455Z,177.93
2019-02-25T03:57:41.663Z,170.20
2019-02-25T03:58:49.840Z,163.90
2019-02-25T03:59:58.169Z,163.87
2019-02-25T04:01:06.499Z,163.00
2019-02-25T04:02:14.837Z,162.40
2019-02-25T04:03:23.559Z,164.10
2019-02-25T04:04:31.977Z,183.87
2019-02-25T04:05:40.600Z,183.77
2019-02-25T04:06:48.906Z,167.60
2019-02-25T04:07:57.134Z,160.57
2019-02-25T04:09:07.239Z,159.47
2019-02-25T04:10:16.937Z,158.13
2019-02-25T04:11:25.770Z,168.60
2019-02-25T04:12:34.084Z,176.57
2019-02-25T04:13:42.598Z,167.30
2019-02-25T04:14:50.791Z,158.97
2019-02-25T04:15:59.163Z,159.23
2019-02-25T04:17:07.200Z,162.33
2019-02-25T04:18:16.177Z,161.20
2019-02-25T04:19:24.213Z,162.50
2019-02-25T04:20:33.060Z,178.10
2019-02-25T04:21:41.567Z,178.90
2019-02-25T04:22:50.044Z,162.97
2019-02-25T04:23:58.338Z,160.53
2019-02-25T04:25:07.683Z,159.77
2019-02-25T04:26:16.193Z,161.17
2019-02-25T04:27:24.603Z,165.93
2019-02-25T04:28:32.894Z,178.00
2019-02-25T04:29:41.482Z,178.07
2019-02-25T04:30:49.684Z,157.93
2019-02-25T04:31:58.064Z,159.83
2019-02-25T04:33:06.387Z,161.50
2019-02-25T04:34:14.573Z,159.90
2019-02-25T04:35:24.683Z,163.33
2019-02-25T04:36:33.187Z,181.17
2019-02-25T04:37:41.759Z,176.70
2019-02-25T04:38:50.103Z,162.40
2019-02-25T04:39:58.445Z,164.13
2019-02-25T04:41:07.258Z,162.20
2019-02-25T04:42:15.766Z,163.53
2019-02-25T04:43:23.868Z,162.43
2019-02-25T04:44:32.460Z,182.77
2019-02-25T04:45:41.222Z,183.83
2019-02-25T04:46:50.073Z,161.63
2019-02-25T04:47:57.998Z,159.90
2019-02-25T04:49:06.431Z,162.60
2019-02-25T04:50:14.999Z,157.93
2019-02-25T04:51:23.185Z,161.10
2019-02-25T04:52:31.811Z,179.43
2019-02-25T04:53:40.318Z,179.17
2019-02-25T04:54:48.627Z,162.57
2019-02-25T04:55:57.180Z,167.00
2019-02-25T04:57:05.436Z,162.17
2019-02-25T04:58:13.483Z,163.77
2019-02-25T04:59:21.701Z,163.97
2019-02-25T05:00:29.928Z,174.73
2019-02-25T05:01:38.064Z,184.63
2019-02-25T05:02:46.468Z,176.67
2019-02-25T05:03:54.670Z,172.17
2019-02-25T05:05:03.093Z,160.37
2019-02-25T05:06:11.506Z,165.77
2019-02-25T05:07:19.799Z,162.03
2019-02-25T05:08:28.347Z,163.83
2019-02-25T05:09:36.641Z,174.87
2019-02-25T05:10:45.409Z,180.93
2019-02-25T05:11:53.553Z,163.87
2019-02-25T05:13:06.233Z,164.10
2019-02-25T05:14:14.448Z,171.47
2019-02-25T05:15:27.075Z,164.60
2019-02-25T05:16:35.554Z,187.70
2019-02-25T05:17:43.950Z,199.17
2019-02-25T05:18:52.306Z,173.93
2019-02-25T05:20:00.578Z,180.93
2019-02-25T05:21:08.621Z,167.30
2019-02-25T05:22:17.200Z,170.03
2019-02-25T05:23:25.405Z,174.77
2019-02-25T05:24:33.810Z,178.23
2019-02-25T05:25:41.973Z,180.00
2019-02-25T05:26:50.079Z,163.90
2019-02-25T05:27:57.880Z,161.23
2019-02-25T05:29:05.909Z,156.57
2019-02-25T05:30:15.944Z,156.87
2019-02-25T05:31:24.178Z,163.87
2019-02-25T05:32:32.403Z,172.50
2019-02-25T05:33:40.597Z,180.07
2019-02-25T05:34:48.848Z,163.73
2019-02-25T05:35:57.319Z,150.33
2019-02-25T05:37:05.543Z,156.50
2019-02-25T05:38:13.659Z,164.27
2019-02-25T05:39:21.838Z,166.33
2019-02-25T05:40:30.211Z,164.90
2019-02-25T05:41:38.165Z,199.43
2019-02-25T05:42:46.456Z,190.80
2019-02-25T05:43:55.388Z,171.17
2019-02-25T05:45:03.480Z,165.13
2019-02-25T05:46:11.605Z,170.13
2019-02-25T05:47:20.160Z,165.97
2019-02-25T05:48:28.480Z,166.43
2019-02-25T05:49:36.704Z,183.80
2019-02-25T05:50:44.882Z,186.60
2019-02-25T05:51:53.215Z,167.73
2019-02-25T05:53:01.730Z,172.00
2019-02-25T05:54:11.153Z,164.20
2019-02-25T05:55:19.661Z,168.47
2019-02-25T05:56:28.078Z,166.20
2019-02-25T05:57:36.589Z,180.50
2019-02-25T05:58:45.216Z,182.27
2019-02-25T05:59:53.523Z,165.43
2019-02-25T06:01:02.394Z,166.37
2019-02-25T06:02:10.435Z,166.60
2019-02-25T06:03:18.901Z,164.30
2019-02-25T06:04:27.565Z,168.60
2019-02-25T06:05:35.942Z,180.10
2019-02-25T06:06:44.178Z,187.03
2019-02-25T06:07:52.848Z,166.67
2019-02-25T06:09:00.961Z,175.90
2019-02-25T06:10:12.328Z,165.57
2019-02-25T06:11:20.264Z,165.13
2019-02-25T06:12:28.740Z,160.70
2019-02-25T06:13:36.747Z,177.13
2019-02-25T06:14:44.888Z,178.70
2019-02-25T06:15:52.983Z,166.70
2019-02-25T06:17:01.132Z,167.73
2019-02-25T06:18:09.502Z,171.23
2019-02-25T06:19:17.779Z,169.53
2019-02-25T06:20:26.309Z,164.57
2019-02-25T06:21:34.695Z,180.40
2019-02-25T06:22:44.484Z,180.27
2019-02-25T06:23:53.112Z,162.87
2019-02-25T06:25:01.749Z,158.30
2019-02-25T06:26:10.184Z,152.87
2019-02-25T06:27:18.288Z,159.30
2019-02-25T06:28:27.422Z,155.07
2019-02-25T06:29:35.629Z,148.37
2019-02-25T06:30:44.020Z,159.50
2019-02-25T06:31:52.074Z,144.27
2019-02-25T06:33:00.884Z,137.47
2019-02-25T06:34:09.573Z,136.37
2019-02-25T06:35:17.715Z,155.20
2019-02-25T06:36:26.190Z,147.20
2019-02-25T06:37:34.528Z,151.73
2019-02-25T06:38:43.253Z,184.60
2019-02-25T06:39:51.848Z,184.70
2019-02-25T06:41:02.918Z,160.40
2019-02-25T06:42:10.986Z,160.40
2019-02-25T06:43:19.618Z,155.13
2019-02-25T06:44:28.508Z,154.70
2019-02-25T06:45:39.960Z,174.77
2019-02-25T06:46:49.147Z,178.43
2019-02-25T06:47:57.434Z,163.53
2019-02-25T06:49:06.071Z,158.40
2019-02-25T06:50:15.013Z,164.97
2019-02-25T06:51:25.310Z,162.57
2019-02-25T06:52:34.219Z,163.63
2019-02-25T06:53:42.112Z,184.57
2019-02-25T06:54:50.262Z,187.77
2019-02-25T06:56:00.679Z,162.03
2019-02-25T06:57:09.044Z,161.57
2019-02-25T06:58:17.522Z,162.77
2019-02-25T06:59:26.794Z,164.87
2019-02-25T07:00:35.152Z,162.70
2019-02-25T07:01:43.807Z,184.67
2019-02-25T07:02:52.109Z,184.57
2019-02-25T07:04:08.498Z,163.97
2019-02-25T07:05:27.553Z,164.93
2019-02-25T07:06:38.108Z,161.30
2019-02-25T07:07:51.221Z,181.23
2019-02-25T07:09:13.477Z,163.00
2019-02-25T07:10:33.707Z,168.37
2019-02-25T07:11:43.774Z,171.03
2019-02-25T07:12:56.496Z,177.17
2019-02-25T07:14:15.992Z,165.70
2019-02-25T07:15:26.102Z,156.40
2019-02-25T07:16:57.291Z,178.13
2019-02-25T07:18:13.558Z,174.57
2019-02-25T07:19:32.698Z,167.17
2019-02-25T07:20:42.883Z,175.73
2019-02-25T07:21:50.904Z,187.20
2019-02-25T07:23:00.782Z,170.90
2019-02-25T07:24:09.079Z,169.70
2019-02-25T07:25:21.768Z,164.83
2019-02-25T07:26:31.998Z,168.50
2019-02-25T07:27:41.912Z,167.67
2019-02-25T07:28:51.773Z,181.10
2019-02-25T07:30:01.878Z,169.03
2019-02-25T07:31:17.176Z,164.80
2019-02-25T07:32:30.314Z,169.27
2019-02-25T07:33:43.204Z,162.13
2019-02-25T07:35:11.445Z,184.80
2019-02-25T07:36:22.273Z,165.03
2019-02-25T07:37:35.654Z,160.33
2019-02-25T07:38:45.801Z,177.63
2019-02-25T07:39:58.534Z,197.13
2019-02-25T07:41:22.191Z,171.87
2019-02-25T07:42:31.967Z,175.30
2019-02-25T07:43:42.167Z,170.10
2019-02-25T07:44:52.240Z,176.47
2019-02-25T07:46:18.528Z,163.90
2019-02-25T07:47:32.156Z,162.53
2019-02-25T07:48:42.463Z,158.47
2019-02-25T07:49:56.540Z,177.60
2019-02-25T07:51:06.736Z,159.60
2019-02-25T07:52:23.984Z,158.80
2019-02-25T07:53:36.585Z,159.40
2019-02-25T07:54:52.025Z,175.70
2019-02-25T07:56:16.879Z,168.13
2019-02-25T07:57:35.241Z,164.03
2019-02-25T07:59:01.314Z,170.90
2019-02-25T08:00:13.187Z,158.87
2019-02-25T08:01:26.322Z,161.40
2019-02-25T08:02:39.740Z,157.87
2019-02-25T08:03:52.304Z,178.47
2019-02-25T08:05:05.268Z,173.73
2019-02-25T08:06:29.618Z,162.97
2019-02-25T08:07:42.055Z,162.73
2019-02-25T08:08:54.940Z,174.83
2019-02-25T08:10:20.934Z,163.23
2019-02-25T08:11:29.172Z,164.47
2019-02-25T08:12:56.067Z,159.00
2019-02-25T08:14:06.119Z,159.67
2019-02-25T08:15:28.559Z,157.37
2019-02-25T08:16:54.732Z,158.37
2019-02-25T08:18:04.649Z,163.20
2019-02-25T08:19:17.619Z,165.67
2019-02-25T08:20:43.812Z,164.20
2019-02-25T08:22:06.124Z,178.83
2019-02-25T08:23:24.730Z,160.07
2019-02-25T08:24:35.191Z,156.13
2019-02-25T08:25:49.226Z,160.27
2019-02-25T08:27:14.228Z,176.73
2019-02-25T08:28:32.942Z,157.20
2019-02-25T08:29:59.344Z,156.17
2019-02-25T08:31:25.559Z,158.80
2019-02-25T08:32:42.172Z,156.33
2019-02-25T08:34:08.382Z,173.90
2019-02-25T08:36:03.121Z,155.47
2019-02-25T08:37:20.966Z,156.70
2019-02-25T08:38:47.016Z,157.77
2019-02-25T08:40:26.168Z,174.07
2019-02-25T08:41:40.513Z,158.13
2019-02-25T08:42:48.309Z,172.57
2019-02-25T08:44:04.222Z,174.83
2019-02-25T08:45:12.481Z,158.77
2019-02-25T08:46:34.348Z,156.17
2019-02-25T08:47:46.707Z,153.83
2019-02-25T08:48:56.436Z,175.97
2019-02-25T08:50:06.831Z,162.53
2019-02-25T08:51:15.018Z,160.67
2019-02-25T08:52:24.696Z,161.90
2019-02-25T08:53:32.884Z,158.17
2019-02-25T08:54:41.324Z,157.30
2019-02-25T08:55:50.114Z,173.90
2019-02-25T08:56:58.692Z,179.40
2019-02-25T08:58:07.387Z,160.47
2019-02-25T08:59:15.896Z,162.80
2019-02-25T09:00:23.927Z,169.47
2019-02-25T09:01:32.755Z,169.67
2019-02-25T09:02:41.673Z,167.90
2019-02-25T09:03:50.021Z,178.10
2019-02-25T09:04:58.423Z,184.33
2019-02-25T09:06:06.625Z,163.60
2019-02-25T09:07:15.521Z,160.37
2019-02-25T09:08:23.587Z,162.13
2019-02-25T09:09:32.015Z,160.67
2019-02-25T09:10:40.661Z,164.47
2019-02-25T09:11:49.240Z,176.17
2019-02-25T09:12:57.252Z,188.47
2019-02-25T09:14:05.763Z,179.07
2019-02-25T09:15:17.081Z,169.83
2019-02-25T09:16:25.410Z,165.50
2019-02-25T09:17:36.557Z,163.53
2019-02-25T09:18:46.933Z,162.87
2019-02-25T09:19:54.945Z,185.43
2019-02-25T09:21:03.403Z,181.57
2019-02-25T09:22:12.024Z,168.83
2019-02-25T09:23:20.369Z,166.30
2019-02-25T09:24:28.867Z,166.73
2019-02-25T09:25:36.847Z,168.17
2019-02-25T09:26:45.164Z,159.67
2019-02-25T09:27:53.497Z,175.83
2019-02-25T09:29:01.921Z,176.93
2019-02-25T09:30:15.989Z,159.07
2019-02-25T09:31:24.216Z,149.47
2019-02-25T09:32:32.184Z,158.67
2019-02-25T09:33:40.893Z,159.83
2019-02-25T09:34:49.578Z,163.93
2019-02-25T09:35:57.831Z,178.30
2019-02-25T09:37:05.927Z,178.93
2019-02-25T09:38:14.787Z,165.40
2019-02-25T09:39:22.948Z,165.07
2019-02-25T09:40:31.100Z,162.83
2019-02-25T09:41:39.738Z,164.70
2019-02-25T09:42:47.686Z,167.70
2019-02-25T09:43:56.246Z,182.47
2019-02-25T09:45:05.850Z,179.97
2019-02-25T09:46:14.228Z,160.53
2019-02-25T09:47:22.488Z,156.00
2019-02-25T09:48:30.534Z,157.67
2019-02-25T09:49:38.894Z,161.73
2019-02-25T09:50:46.918Z,164.40
2019-02-25T09:51:54.976Z,178.00
2019-02-25T09:53:03.179Z,178.70
2019-02-25T09:54:11.377Z,161.40
2019-02-25T09:55:20.085Z,159.03
2019-02-25T09:56:28.187Z,157.20
2019-02-25T09:57:36.215Z,158.07
2019-02-25T09:58:44.632Z,151.00
2019-02-25T09:59:52.987Z,170.53
2019-02-25T10:01:01.611Z,176.27
2019-02-25T10:02:10.149Z,166.13
2019-02-25T10:03:18.511Z,157.70
2019-02-25T10:04:26.546Z,158.90
2019-02-25T10:05:34.702Z,151.40
2019-02-25T10:06:42.804Z,57.70
2019-02-25T10:07:50.968Z,48.13
2019-02-25T10:08:59.140Z,17.20
2019-02-25T10:10:14.162Z,14.00
2019-02-25T10:11:22.559Z,129.67
2019-02-25T10:12:30.803Z,121.93
2019-02-25T10:13:38.954Z,135.27
2019-02-25T10:14:49.447Z,156.00
2019-02-25T10:15:57.561Z,174.87
2019-02-25T10:17:05.600Z,180.30
2019-02-25T10:18:14.007Z,163.57
2019-02-25T10:19:22.495Z,157.87
2019-02-25T10:20:30.782Z,158.30
2019-02-25T10:21:39.188Z,157.73
2019-02-25T10:22:47.330Z,163.93
2019-02-25T10:23:55.928Z,170.20
2019-02-25T10:25:04.832Z,152.23
2019-02-25T10:26:13.181Z,113.87
2019-02-25T10:27:21.335Z,136.77
2019-02-25T10:28:29.643Z,158.70
2019-02-25T10:29:38.053Z,151.87
2019-02-25T10:30:52.590Z,150.50
2019-02-25T10:31:56.300Z,168.17
2019-02-25T10:33:04.690Z,176.10
2019-02-25T10:34:13.243Z,144.77
2019-02-25T10:35:27.208Z,135.97
2019-02-25T10:36:36.048Z,114.57
2019-02-25T10:37:44.185Z,140.83
2019-02-25T10:38:52.533Z,160.20
2019-02-25T10:40:00.992Z,180.00
2019-02-25T10:41:09.262Z,175.07
2019-02-25T10:42:18.024Z,159.80
2019-02-25T10:43:28.086Z,146.70
2019-02-25T10:44:38.176Z,123.37
2019-02-25T10:45:47.007Z,125.93
2019-02-25T10:46:55.359Z,113.87
2019-02-25T10:48:03.877Z,135.30
2019-02-25T10:49:12.321Z,149.37
2019-02-25T10:50:21.013Z,146.37
2019-02-25T10:51:29.173Z,161.53
2019-02-25T10:52:38.772Z,165.47
2019-02-25T10:53:49.426Z,161.13
2019-02-25T10:54:58.312Z,164.37
2019-02-25T10:56:19.275Z,154.83
2019-02-25T10:57:29.091Z,139.20
2019-02-25T10:58:36.925Z,133.63
2019-02-25T10:59:45.263Z,126.53
2019-02-25T11:00:53.631Z,153.47
2019-02-25T11:02:01.935Z,165.60
2019-02-25T11:03:12.378Z,166.77
2019-02-25T11:04:21.796Z,119.97
2019-02-25T11:05:30.637Z,107.53
2019-02-25T11:06:39.083Z,142.40
2019-02-25T11:07:48.200Z,145.60
2019-02-25T11:08:58.242Z,133.83
2019-02-25T11:10:27.128Z,108.63
2019-02-25T11:11:40.122Z,118.10
2019-02-25T11:12:48.674Z,107.17
2019-02-25T11:13:58.774Z,58.77
2019-02-25T11:15:13.907Z,74.50
2019-02-25T11:16:23.464Z,128.17
2019-02-25T11:17:31.761Z,105.43
2019-02-25T11:18:40.547Z,151.50
2019-02-25T11:19:49.077Z,154.07
2019-02-25T11:20:59.008Z,135.60
2019-02-25T11:22:09.990Z,161.47
2019-02-25T11:23:19.401Z,146.93
2019-02-25T11:24:28.609Z,116.17
2019-02-25T11:25:37.032Z,98.97
2019-02-25T11:26:45.336Z,45.93
2019-02-25T11:27:53.818Z,92.90
2019-02-25T11:29:02.689Z,167.77
2019-02-25T11:30:18.874Z,183.70
2019-02-25T11:31:29.095Z,137.03
2019-02-25T11:32:36.754Z,153.67
2019-02-25T11:33:44.952Z,157.60
2019-02-25T11:34:53.687Z,158.53
2019-02-25T11:36:01.863Z,169.87
2019-02-25T11:37:10.014Z,179.83
2019-02-25T11:38:18.711Z,160.60
2019-02-25T11:39:29.677Z,162.33
2019-02-25T11:40:38.370Z,162.63
2019-02-25T11:41:46.855Z,166.63
2019-02-25T11:42:54.964Z,167.90
2019-02-25T11:44:03.164Z,185.20
2019-02-25T11:45:14.641Z,181.60
2019-02-25T11:46:23.254Z,150.93
2019-02-25T11:47:31.556Z,143.37
2019-02-25T11:48:39.570Z,138.40
2019-02-25T11:49:47.772Z,73.37
2019-02-25T11:50:56.354Z,13.43
2019-02-25T11:52:04.892Z,57.87
2019-02-25T11:53:13.007Z,17.83
2019-02-25T11:54:21.260Z,6.20
2019-02-25T11:55:29.669Z,6.17
2019-02-25T11:56:38.531Z,5.60
2019-02-25T11:57:46.991Z,6.83
2019-02-25T11:58:55.253Z,5.53
2019-02-25T12:00:03.416Z,15.17
2019-02-25T12:01:11.887Z,15.97
2019-02-25T12:02:25.431Z,5.70
2019-02-25T12:03:29.992Z,5.63
2019-02-25T12:04:39.149Z,10.63
2019-02-25T12:05:47.556Z,8.03
2019-02-25T12:07:01.322Z,9.90
2019-02-25T12:08:12.584Z,18.17
2019-02-25T12:09:21.360Z,18.23
2019-02-25T12:10:30.051Z,125.93
2019-02-25T12:11:38.310Z,129.37
2019-02-25T12:12:46.860Z,77.40
2019-02-25T12:13:55.538Z,37.83
2019-02-25T12:15:03.863Z,127.70
2019-02-25T12:16:12.197Z,110.97
2019-02-25T12:17:20.458Z,118.03
2019-02-25T12:18:29.132Z,133.10
2019-02-25T12:19:37.514Z,118.60
2019-02-25T12:20:45.724Z,13.40
2019-02-25T12:21:54.000Z,15.37
2019-02-25T12:23:02.518Z,126.00
2019-02-25T12:24:11.057Z,105.80
2019-02-25T12:25:27.049Z,128.90
2019-02-25T12:26:35.514Z,156.50
2019-02-25T12:27:43.885Z,156.73
2019-02-25T12:28:53.251Z,163.80
2019-02-25T12:30:01.547Z,138.50
2019-02-25T12:31:09.955Z,145.60
2019-02-25T12:32:17.849Z,115.03
2019-02-25T12:33:27.477Z,160.97
2019-02-25T12:34:35.702Z,159.53
2019-02-25T12:35:44.273Z,143.53
2019-02-25T12:36:52.693Z,144.80
2019-02-25T12:38:01.099Z,147.83
2019-02-25T12:39:09.595Z,117.17
2019-02-25T12:40:20.162Z,162.90
2019-02-25T12:41:28.556Z,73.80
2019-02-25T12:42:36.692Z,100.87
2019-02-25T12:43:44.705Z,86.03
2019-02-25T12:44:53.459Z,56.77
2019-02-25T12:46:01.995Z,103.70
2019-02-25T12:47:10.427Z,149.93
2019-02-25T12:48:18.673Z,142.17
2019-02-25T12:49:27.195Z,92.27
2019-02-25T12:50:35.384Z,156.00
2019-02-25T12:51:43.578Z,149.57
2019-02-25T12:52:51.630Z,103.83
2019-02-25T12:53:59.787Z,94.50
2019-02-25T12:55:16.562Z,123.93
2019-02-25T12:56:25.082Z,114.50
2019-02-25T12:57:33.261Z,58.63
2019-02-25T12:58:41.465Z,114.23
2019-02-25T12:59:49.931Z,62.53
2019-02-25T13:00:58.171Z,101.57
2019-02-25T13:02:06.437Z,146.57
2019-02-25T13:03:14.715Z,130.83
2019-02-25T13:04:23.199Z,117.63
2019-02-25T13:05:31.901Z,124.63
2019-02-25T13:06:40.431Z,157.30
2019-02-25T13:07:48.733Z,156.37
2019-02-25T13:08:57.079Z,172.93
2019-02-25T13:10:08.636Z,173.67
2019-02-25T13:11:16.887Z,186.73
2019-02-25T13:12:25.297Z,147.43
2019-02-25T13:13:33.852Z,155.97
2019-02-25T13:14:42.225Z,158.40
2019-02-25T13:15:50.524Z,144.70
2019-02-25T13:16:59.305Z,152.97
2019-02-25T13:18:07.628Z,143.37
2019-02-25T13:19:15.785Z,141.63
2019-02-25T13:20:24.309Z,142.90
2019-02-25T13:21:32.979Z,161.93
2019-02-25T13:22:41.219Z,165.10
2019-02-25T13:23:49.289Z,172.13
2019-02-25T13:24:57.782Z,167.27
2019-02-25T13:26:07.324Z,171.37
2019-02-25T13:27:15.880Z,188.20
2019-02-25T13:28:26.230Z,122.57
2019-02-25T13:29:34.428Z,107.20
2019-02-25T13:30:42.572Z,74.23
2019-02-25T13:31:51.112Z,99.27
2019-02-25T13:32:59.317Z,11.40
2019-02-25T13:34:07.607Z,62.03
2019-02-25T13:35:16.369Z,78.93
2019-02-25T13:36:24.861Z,46.83
2019-02-25T13:37:33.316Z,12.83
2019-02-25T13:38:41.598Z,69.73
2019-02-25T13:39:50.135Z,146.37
2019-02-25T13:40:58.391Z,162.83
2019-02-25T13:42:07.083Z,166.60
2019-02-25T13:43:15.294Z,164.47
2019-02-25T13:44:23.644Z,156.87
2019-02-25T13:45:33.115Z,177.10
2019-02-25T13:46:41.380Z,167.07
2019-02-25T13:47:49.716Z,158.73
2019-02-25T13:48:58.353Z,157.27
2019-02-25T13:50:11.342Z,159.80
2019-02-25T13:51:19.646Z,154.20
2019-02-25T13:52:28.048Z,165.20
2019-02-25T13:53:36.479Z,164.33
2019-02-25T13:54:44.854Z,169.93
2019-02-25T13:55:53.052Z,169.10
2019-02-25T13:57:01.318Z,163.43
2019-02-25T13:58:09.615Z,178.73
2019-02-25T13:59:18.022Z,155.77
2019-02-25T14:00:29.762Z,148.47
2019-02-25T14:01:37.990Z,129.33
2019-02-25T14:02:47.677Z,138.93
2019-02-25T14:03:56.042Z,137.43
2019-02-25T14:05:05.228Z,157.03
2019-02-25T14:06:13.626Z,98.23
2019-02-25T14:07:21.687Z,92.03
2019-02-25T14:08:30.204Z,8.03
2019-02-25T14:09:38.721Z,6.40
2019-02-25T14:10:47.017Z,7.80
2019-02-25T14:11:55.109Z,7.07
2019-02-25T14:13:03.633Z,41.70
2019-02-25T14:14:11.920Z,66.17
2019-02-25T14:15:23.422Z,44.63
2019-02-25T14:16:31.708Z,11.67
2019-02-25T14:17:41.010Z,48.50
2019-02-25T14:18:49.427Z,8.23
2019-02-25T14:19:57.738Z,7.27
2019-02-25T14:21:06.553Z,7.23
2019-02-25T14:22:16.555Z,20.10
2019-02-25T14:23:24.904Z,54.20
2019-02-25T14:24:33.187Z,90.87
2019-02-25T14:25:41.723Z,119.63
2019-02-25T14:26:50.599Z,138.33
2019-02-25T14:27:58.907Z,128.27
2019-02-25T14:29:07.278Z,114.57
2019-02-25T14:30:22.345Z,154.23
2019-02-25T14:31:30.684Z,127.10
2019-02-25T14:32:39.478Z,157.40
2019-02-25T14:33:52.064Z,134.97
2019-02-25T14:34:57.622Z,141.20